createdAt,value
2023-04-18T00:00:10.762Z,9.45
2023-04-18T00:02:47.749Z,9.46
2023-04-18T00:05:18.388Z,9.44
2023-04-18T00:07:48.833Z,9.47
2023-04-18T00:10:19.510Z,9.49
2023-04-18T00:12:50.041Z,9.48
2023-04-18T00:15:20.067Z,9.48
2023-04-18T00:17:56.643Z,9.42
2023-04-18T00:20:28.862Z,9.32
2023-04-18T00:23:00.908Z,9.32
2023-04-18T00:25:31.163Z,9.27
2023-04-18T00:28:01.503Z,9.28
2023-04-18T00:30:31.635Z,9.31
2023-04-18T00:33:04.804Z,9.41
2023-04-18T00:35:34.965Z,9.49
2023-04-18T00:38:05.028Z,9.55
2023-04-18T00:40:35.226Z,9.61
2023-04-18T00:43:05.537Z,9.58
2023-04-18T00:45:37.207Z,9.66
2023-04-18T00:48:10.336Z,9.68
2023-04-18T00:50:41.793Z,9.69
2023-04-18T00:53:12.863Z,9.73
2023-04-18T00:55:44.294Z,9.65
2023-04-18T00:58:15.035Z,9.63
2023-04-18T01:00:45.998Z,9.62
2023-04-18T01:03:19.288Z,9.62
2023-04-18T01:05:49.728Z,9.63
2023-04-18T01:08:21.684Z,9.61
2023-04-18T01:10:52.430Z,9.54
2023-04-18T01:13:23.587Z,9.50
2023-04-18T01:15:55.886Z,9.48
2023-04-18T01:18:31.664Z,9.48
2023-04-18T01:21:02.794Z,9.49
2023-04-18T01:23:33.491Z,9.49
2023-04-18T01:26:06.304Z,9.54
2023-04-18T01:28:39.773Z,9.54
2023-04-18T01:31:11.250Z,9.52
2023-04-18T01:33:41.575Z,9.44
2023-04-18T01:36:11.665Z,9.38
2023-04-18T01:38:41.747Z,9.29
2023-04-18T01:41:14.674Z,9.31
2023-04-18T01:43:46.254Z,9.34
2023-04-18T01:46:17.014Z,9.34
2023-04-18T01:48:47.345Z,9.28
2023-04-18T01:51:17.514Z,9.22
2023-04-18T01:53:47.740Z,9.15
2023-04-18T01:56:21.125Z,9.12
2023-04-18T01:58:51.319Z,9.18
2023-04-18T02:01:21.715Z,9.22
2023-04-18T02:03:51.986Z,9.30
2023-04-18T02:06:22.600Z,9.35
2023-04-18T02:08:52.669Z,9.29
2023-04-18T02:11:25.381Z,9.27
2023-04-18T02:13:55.831Z,9.27
2023-04-18T02:16:26.030Z,9.33
2023-04-18T02:18:56.735Z,9.42
2023-04-18T02:21:27.170Z,9.48
2023-04-18T02:23:57.217Z,9.48
2023-04-18T02:26:29.922Z,9.53
2023-04-18T02:29:01.569Z,9.62
2023-04-18T02:31:33.227Z,9.71
2023-04-18T02:34:03.318Z,9.76
2023-04-18T02:36:33.441Z,9.75
2023-04-18T02:39:03.555Z,9.81
2023-04-18T02:41:37.852Z,9.89
2023-04-18T02:44:08.346Z,9.87
2023-04-18T02:46:41.545Z,9.81
2023-04-18T02:49:15.703Z,9.80
2023-04-18T02:51:47.933Z,9.79
2023-04-18T02:54:19.547Z,9.81
2023-04-18T02:57:07.300Z,9.82
2023-04-18T02:59:55.890Z,9.85
2023-04-18T03:02:44.883Z,9.80
2023-04-18T03:05:28.259Z,9.79
2023-04-18T03:08:02.134Z,9.79
2023-04-18T03:10:32.962Z,9.78
2023-04-18T03:13:05.854Z,9.71
2023-04-18T03:15:36.605Z,9.74
2023-04-18T03:18:07.333Z,9.71
2023-04-18T03:20:41.066Z,9.61
2023-04-18T03:23:11.663Z,9.61
2023-04-18T03:25:42.350Z,9.66
2023-04-18T03:28:15.207Z,9.64
2023-04-18T03:30:45.644Z,9.65
2023-04-18T03:33:17.229Z,9.59
2023-04-18T03:35:49.009Z,9.52
2023-04-18T03:38:19.234Z,9.50
2023-04-18T03:40:49.312Z,9.50
2023-04-18T03:43:29.590Z,9.46
2023-04-18T03:45:59.766Z,9.45
2023-04-18T03:48:31.118Z,9.37
2023-04-18T03:51:05.148Z,9.32
2023-04-18T03:53:35.916Z,9.21
2023-04-18T03:56:06.335Z,9.14
2023-04-18T03:58:52.254Z,9.03
2023-04-18T04:01:24.519Z,8.92
2023-04-18T04:03:56.322Z,8.88
2023-04-18T04:06:26.982Z,8.76
2023-04-18T04:08:57.896Z,8.76
2023-04-18T04:11:29.804Z,8.81
2023-04-18T04:14:02.646Z,8.77
2023-04-18T04:16:40.700Z,8.69
2023-04-18T04:19:12.313Z,8.69
2023-04-18T04:21:49.541Z,8.67
2023-04-18T04:24:20.621Z,8.59
2023-04-18T04:26:51.744Z,8.59
2023-04-18T04:29:29.187Z,8.64
2023-04-18T04:32:01.755Z,8.73
2023-04-18T04:34:37.035Z,8.68
2023-04-18T04:37:09.812Z,8.71
2023-04-18T04:39:49.537Z,8.70
2023-04-18T04:42:34.788Z,8.67
2023-04-18T04:45:15.362Z,8.62
2023-04-18T04:47:45.618Z,8.58
2023-04-18T04:50:17.693Z,8.60
2023-04-18T04:52:47.919Z,8.65
2023-04-18T04:55:19.187Z,8.73
2023-04-18T04:57:49.706Z,9.00
2023-04-18T05:00:36.607Z,9.35
2023-04-18T05:03:07.392Z,9.78
2023-04-18T05:05:37.827Z,10.01
2023-04-18T05:08:08.564Z,9.99
2023-04-18T05:10:39.337Z,9.92
2023-04-18T05:13:09.453Z,10.09
2023-04-18T05:15:42.622Z,10.18
2023-04-18T05:18:14.329Z,10.07
2023-04-18T05:20:44.419Z,9.99
2023-04-18T05:23:14.515Z,9.93
2023-04-18T05:25:44.774Z,9.91
2023-04-18T05:28:14.837Z,9.94
2023-04-18T05:30:47.983Z,9.89
2023-04-18T05:33:18.120Z,9.80
2023-04-18T05:35:48.295Z,9.71
2023-04-18T05:38:18.486Z,9.79
2023-04-18T05:40:51.164Z,9.84
2023-04-18T05:43:22.089Z,9.91
2023-04-18T05:45:57.652Z,10.08
2023-04-18T05:48:28.170Z,10.17
2023-04-18T05:51:13.100Z,10.37
2023-04-18T05:53:43.283Z,10.46
2023-04-18T05:56:13.658Z,10.47
2023-04-18T05:58:45.255Z,10.49
2023-04-18T06:01:18.813Z,10.59
2023-04-18T06:03:49.205Z,10.64
2023-04-18T06:06:19.618Z,10.69
2023-04-18T06:08:49.870Z,10.78
2023-04-18T06:11:22.763Z,10.84
2023-04-18T06:13:55.853Z,10.93
2023-04-18T06:16:28.992Z,10.98
2023-04-18T06:19:01.212Z,11.09
2023-04-18T06:21:32.249Z,11.18
2023-04-18T06:24:02.476Z,11.18
2023-04-18T06:26:33.376Z,11.14
2023-04-18T06:29:03.522Z,11.12
2023-04-18T06:31:36.262Z,11.25
2023-04-18T06:34:06.401Z,11.38
2023-04-18T06:36:36.912Z,11.53
2023-04-18T06:39:07.091Z,11.63
2023-04-18T06:41:37.481Z,11.72
2023-04-18T06:44:07.720Z,11.84
2023-04-18T06:46:40.673Z,11.93
2023-04-18T06:49:10.932Z,12.06
2023-04-18T06:51:41.109Z,12.16
2023-04-18T06:54:11.732Z,12.34
2023-04-18T06:56:44.269Z,12.56
2023-04-18T06:59:14.781Z,12.99
2023-04-18T07:01:47.676Z,13.80
2023-04-18T07:04:18.203Z,14.54
2023-04-18T07:06:48.867Z,15.32
2023-04-18T07:09:20.445Z,15.95
2023-04-18T07:11:51.431Z,16.49
2023-04-18T07:14:36.508Z,16.76
2023-04-18T07:17:09.288Z,17.27
2023-04-18T07:19:39.451Z,17.13
2023-04-18T07:22:09.637Z,16.92
2023-04-18T07:24:40.151Z,16.67
2023-04-18T07:27:10.423Z,16.34
2023-04-18T07:29:40.597Z,16.14
2023-04-18T07:32:13.594Z,16.16
2023-04-18T07:34:43.919Z,16.06
2023-04-18T07:37:15.275Z,15.86
2023-04-18T07:39:45.543Z,15.53
2023-04-18T07:42:15.629Z,15.39
2023-04-18T07:44:47.313Z,15.19
2023-04-18T07:47:22.279Z,14.90
2023-04-18T07:49:52.682Z,14.57
2023-04-18T07:52:22.796Z,14.43
2023-04-18T07:54:53.271Z,14.32
2023-04-18T07:57:23.478Z,14.16
2023-04-18T07:59:54.580Z,14.02
2023-04-18T08:02:27.462Z,13.91
2023-04-18T08:04:58.014Z,13.84
2023-04-18T08:07:28.324Z,13.65
2023-04-18T08:09:58.390Z,13.54
2023-04-18T08:12:28.418Z,13.48
2023-04-18T08:14:58.522Z,13.38
2023-04-18T08:17:33.693Z,13.36
2023-04-18T08:20:07.404Z,13.34
2023-04-18T08:22:46.814Z,13.33
2023-04-18T08:25:27.306Z,13.51
2023-04-18T08:27:58.000Z,13.62
2023-04-18T08:30:28.228Z,13.69
2023-04-18T08:33:03.086Z,13.67
2023-04-18T08:35:35.566Z,13.64
2023-04-18T08:38:07.949Z,13.66
2023-04-18T08:40:46.109Z,13.74
2023-04-18T08:43:17.388Z,13.81
2023-04-18T08:45:48.761Z,13.86
2023-04-18T08:48:23.867Z,14.03
2023-04-18T08:51:00.320Z,14.17
2023-04-18T08:53:36.978Z,14.50
2023-04-18T08:56:10.565Z,14.97
2023-04-18T08:58:45.364Z,15.50
2023-04-18T09:01:15.606Z,15.91
2023-04-18T09:03:48.336Z,16.26
2023-04-18T09:06:20.457Z,16.58
2023-04-18T09:09:00.426Z,16.86
2023-04-18T09:11:34.657Z,17.03
2023-04-18T09:14:04.789Z,17.14
2023-04-18T09:16:48.223Z,17.14
2023-04-18T09:19:21.905Z,17.14
2023-04-18T09:22:01.468Z,17.11
2023-04-18T09:24:34.851Z,16.92
2023-04-18T09:27:05.146Z,16.76
2023-04-18T09:29:49.712Z,16.69
2023-04-18T09:32:25.653Z,16.83
2023-04-18T09:35:03.969Z,17.02
2023-04-18T09:37:34.801Z,17.03
2023-04-18T09:40:19.474Z,17.00
2023-04-18T09:42:50.921Z,17.06
2023-04-18T09:45:22.301Z,17.08
2023-04-18T09:47:52.620Z,17.08
2023-04-18T09:50:25.431Z,17.00
2023-04-18T09:52:58.398Z,16.97
2023-04-18T09:55:29.565Z,17.05
2023-04-18T09:58:02.345Z,17.14
2023-04-18T10:00:33.828Z,17.33
2023-04-18T10:03:10.112Z,17.58
2023-04-18T10:05:44.187Z,17.66
2023-04-18T10:08:16.698Z,17.68
2023-04-18T10:10:46.799Z,17.58
2023-04-18T10:13:17.349Z,17.51
2023-04-18T10:15:51.404Z,17.37
2023-04-18T10:18:40.889Z,17.41
2023-04-18T10:21:13.602Z,17.33
2023-04-18T10:23:43.994Z,17.23
2023-04-18T10:26:14.314Z,17.29
2023-04-18T10:28:57.031Z,17.39
2023-04-18T10:31:28.937Z,17.39
2023-04-18T10:34:05.560Z,17.34
2023-04-18T10:36:38.910Z,17.48
2023-04-18T10:39:25.708Z,17.67
2023-04-18T10:41:55.898Z,17.76
2023-04-18T10:44:27.272Z,17.90
2023-04-18T10:47:33.034Z,18.04
2023-04-18T10:50:06.799Z,18.13
2023-04-18T10:52:39.827Z,18.03
2023-04-18T10:55:16.651Z,17.96
2023-04-18T10:57:48.078Z,18.03
2023-04-18T11:00:21.928Z,18.02
2023-04-18T11:03:00.369Z,17.98
2023-04-18T11:05:31.528Z,18.04
2023-04-18T11:08:04.412Z,18.15
2023-04-18T11:10:34.764Z,18.21
2023-04-18T11:13:08.693Z,18.33
2023-04-18T11:15:40.026Z,18.52
2023-04-18T11:18:12.240Z,18.58
2023-04-18T11:20:59.070Z,18.49
2023-04-18T11:23:31.756Z,18.40
2023-04-18T11:26:03.480Z,18.32
2023-04-18T11:28:33.752Z,18.26
2023-04-18T11:31:06.517Z,18.24
2023-04-18T11:33:37.199Z,18.10
2023-04-18T11:36:08.425Z,17.96
2023-04-18T11:38:43.757Z,18.11
2023-04-18T11:41:17.293Z,18.33
2023-04-18T11:43:48.603Z,18.58
2023-04-18T11:46:18.733Z,18.72
2023-04-18T11:48:50.654Z,18.72
2023-04-18T11:51:38.928Z,18.53
2023-04-18T11:54:41.740Z,18.42
2023-04-18T11:57:23.927Z,18.36
2023-04-18T11:59:56.362Z,18.35
2023-04-18T12:02:42.602Z,18.41
2023-04-18T12:05:15.258Z,18.40
2023-04-18T12:07:48.181Z,18.28
2023-04-18T12:10:31.559Z,18.27
2023-04-18T12:13:02.562Z,18.30
2023-04-18T12:15:33.851Z,18.28
2023-04-18T12:18:05.519Z,18.23
2023-04-18T12:20:54.272Z,18.23
2023-04-18T12:23:35.697Z,18.30
2023-04-18T12:26:11.772Z,18.43
2023-04-18T12:28:42.863Z,18.47
2023-04-18T12:31:13.111Z,18.49
2023-04-18T12:33:43.299Z,18.42
2023-04-18T12:36:13.529Z,18.40
2023-04-18T12:38:43.983Z,18.35
2023-04-18T12:41:16.793Z,18.25
2023-04-18T12:43:47.083Z,18.34
2023-04-18T12:46:17.229Z,18.46
2023-04-18T12:48:47.457Z,18.60
2023-04-18T12:51:17.908Z,18.59
2023-04-18T12:53:48.020Z,18.45
2023-04-18T12:56:21.229Z,18.46
2023-04-18T12:58:52.045Z,18.52
2023-04-18T13:01:22.435Z,18.61
2023-04-18T13:04:03.809Z,18.63
2023-04-18T13:06:34.909Z,18.73
2023-04-18T13:09:05.069Z,18.77
2023-04-18T13:11:37.946Z,18.77
2023-04-18T13:14:08.063Z,18.83
2023-04-18T13:16:38.471Z,18.74
2023-04-18T13:19:09.019Z,18.57
2023-04-18T13:21:39.544Z,18.33
2023-04-18T13:24:10.495Z,18.16
2023-04-18T13:26:43.227Z,18.09
2023-04-18T13:29:13.549Z,18.16
2023-04-18T13:31:44.263Z,18.32
2023-04-18T13:34:14.557Z,18.59
2023-04-18T13:36:44.720Z,18.76
2023-04-18T13:39:15.514Z,18.78
2023-04-18T13:41:48.460Z,18.89
2023-04-18T13:44:18.592Z,19.07
2023-04-18T13:46:49.157Z,19.19
2023-04-18T13:49:19.306Z,19.17
2023-04-18T13:51:50.651Z,19.11
2023-04-18T13:54:20.839Z,19.03
2023-04-18T13:56:53.512Z,18.93
2023-04-18T13:59:25.063Z,18.86
2023-04-18T14:01:55.673Z,18.71
2023-04-18T14:04:27.236Z,18.60
2023-04-18T14:06:59.067Z,18.55
2023-04-18T14:09:32.232Z,18.47
2023-04-18T14:12:08.237Z,18.43
2023-04-18T14:14:38.607Z,18.36
2023-04-18T14:17:08.856Z,18.31
2023-04-18T14:19:41.795Z,18.29
2023-04-18T14:22:12.215Z,18.27
2023-04-18T14:24:45.295Z,18.24
2023-04-18T14:27:18.115Z,18.23
2023-04-18T14:29:49.081Z,18.14
2023-04-18T14:32:19.243Z,18.08
2023-04-18T14:34:49.401Z,18.00
2023-04-18T14:37:19.553Z,17.94
2023-04-18T14:39:51.660Z,17.88
2023-04-18T14:42:24.427Z,17.85
2023-04-18T14:44:54.681Z,17.83
2023-04-18T14:47:31.083Z,17.74
2023-04-18T14:50:01.390Z,17.74
2023-04-18T14:52:31.627Z,17.74
2023-04-18T14:55:01.987Z,17.74
2023-04-18T14:57:34.948Z,17.76
2023-04-18T15:00:05.679Z,17.77
2023-04-18T15:02:36.236Z,17.68
2023-04-18T15:05:11.303Z,17.63
2023-04-18T15:07:43.090Z,17.66
2023-04-18T15:10:15.456Z,17.68
2023-04-18T15:12:49.310Z,17.63
2023-04-18T15:15:25.394Z,17.62
2023-04-18T15:17:55.725Z,17.52
2023-04-18T15:20:25.949Z,17.37
2023-04-18T15:22:56.481Z,17.37
2023-04-18T15:25:30.608Z,17.35
2023-04-18T15:28:03.532Z,17.32
2023-04-18T15:30:33.813Z,17.32
2023-04-18T15:33:04.613Z,17.35
2023-04-18T15:35:35.100Z,17.36
2023-04-18T15:38:06.825Z,17.40
2023-04-18T15:40:38.304Z,17.40
2023-04-18T15:43:13.936Z,17.42
2023-04-18T15:45:44.659Z,17.50
2023-04-18T15:48:14.944Z,17.46
2023-04-18T15:50:45.250Z,17.41
2023-04-18T15:53:15.417Z,17.42
2023-04-18T15:55:46.668Z,17.44
2023-04-18T15:58:20.825Z,17.43
2023-04-18T16:00:51.111Z,17.34
2023-04-18T16:03:21.656Z,17.29
2023-04-18T16:05:57.513Z,17.23
2023-04-18T16:08:33.157Z,17.22
2023-04-18T16:11:08.266Z,17.14
2023-04-18T16:13:43.719Z,17.07
2023-04-18T16:16:14.211Z,16.97
2023-04-18T16:18:49.648Z,16.93
2023-04-18T16:21:20.069Z,16.92
2023-04-18T16:24:05.095Z,16.85
2023-04-18T16:26:35.409Z,16.80
2023-04-18T16:29:08.385Z,16.73
2023-04-18T16:31:38.918Z,16.77
2023-04-18T16:34:09.825Z,16.76
2023-04-18T16:36:40.331Z,16.73
2023-04-18T16:39:10.480Z,16.62
2023-04-18T16:41:40.602Z,16.54
2023-04-18T16:44:13.527Z,16.43
2023-04-18T16:46:43.874Z,16.37
2023-04-18T16:49:14.053Z,16.38
2023-04-18T16:51:44.378Z,16.36
2023-04-18T16:54:14.677Z,16.36
2023-04-18T16:56:45.001Z,16.37
2023-04-18T16:59:17.962Z,16.33
2023-04-18T17:01:48.132Z,16.32
2023-04-18T17:04:18.465Z,16.31
2023-04-18T17:06:50.937Z,16.32
2023-04-18T17:09:22.253Z,16.35
2023-04-18T17:11:52.889Z,16.27
2023-04-18T17:14:33.408Z,16.16
2023-04-18T17:17:03.910Z,16.11
2023-04-18T17:19:34.304Z,16.02
2023-04-18T17:22:04.721Z,16.02
2023-04-18T17:24:36.880Z,15.92
2023-04-18T17:27:07.499Z,15.78
2023-04-18T17:29:41.088Z,15.64
2023-04-18T17:32:12.467Z,15.62
2023-04-18T17:34:43.024Z,15.57
2023-04-18T17:37:17.438Z,15.54
2023-04-18T17:39:47.949Z,15.48
2023-04-18T17:42:34.324Z,15.40
2023-04-18T17:45:17.501Z,15.30
2023-04-18T17:47:50.008Z,15.37
2023-04-18T17:50:32.699Z,15.29
2023-04-18T17:53:04.606Z,15.26
2023-04-18T17:55:39.843Z,15.17
2023-04-18T17:58:14.309Z,15.14
2023-04-18T18:00:47.958Z,15.07
2023-04-18T18:03:22.095Z,15.01
2023-04-18T18:05:56.499Z,14.94
2023-04-18T18:08:32.348Z,14.91
2023-04-18T18:11:06.429Z,14.93
2023-04-18T18:13:36.920Z,14.85
2023-04-18T18:16:13.368Z,14.77
2023-04-18T18:18:46.015Z,14.77
2023-04-18T18:21:16.899Z,14.74
2023-04-18T18:23:50.580Z,14.64
2023-04-18T18:26:23.731Z,14.62
2023-04-18T18:28:54.088Z,14.51
2023-04-18T18:31:26.862Z,14.43
2023-04-18T18:33:57.434Z,14.42
2023-04-18T18:36:27.863Z,14.39
2023-04-18T18:38:58.130Z,14.33
2023-04-18T18:41:28.226Z,14.37
2023-04-18T18:44:01.474Z,14.31
2023-04-18T18:46:34.458Z,14.33
2023-04-18T18:49:06.907Z,14.31
2023-04-18T18:51:41.020Z,14.22
2023-04-18T18:54:13.374Z,14.17
2023-04-18T18:56:44.382Z,14.19
2023-04-18T18:59:15.943Z,14.19
2023-04-18T19:01:51.892Z,14.06
2023-04-18T19:04:24.413Z,14.01
2023-04-18T19:10:40.031Z,13.76
2023-04-18T19:13:10.586Z,13.67
2023-04-18T19:15:47.034Z,13.54
2023-04-18T19:18:22.491Z,13.34
2023-04-18T19:20:53.479Z,13.29
2023-04-18T19:23:26.786Z,13.24
2023-04-18T19:25:58.359Z,13.14
2023-04-18T19:28:28.535Z,13.15
2023-04-18T19:30:59.272Z,13.14
2023-04-18T19:33:32.352Z,13.15
2023-04-18T19:36:03.020Z,13.10
2023-04-18T19:38:40.318Z,13.06
2023-04-18T19:41:10.520Z,13.02
2023-04-18T19:43:42.813Z,12.95
2023-04-18T19:46:13.083Z,12.93
2023-04-18T19:48:45.990Z,12.86
2023-04-18T19:51:16.101Z,12.84
2023-04-18T19:53:46.760Z,12.84
2023-04-18T19:56:17.075Z,12.83
2023-04-18T19:58:53.571Z,12.79
2023-04-18T20:01:25.004Z,12.70
2023-04-18T20:04:00.615Z,12.56
2023-04-18T20:06:31.200Z,12.57
2023-04-18T20:09:05.727Z,12.50
2023-04-18T20:11:36.009Z,12.42
2023-04-18T20:14:06.296Z,12.37
2023-04-18T20:16:36.596Z,12.36
2023-04-18T20:19:12.609Z,12.29
2023-04-18T20:21:42.881Z,12.21
2023-04-18T20:24:16.192Z,12.14
2023-04-18T20:26:46.439Z,12.11
2023-04-18T20:29:16.799Z,12.07
2023-04-18T20:31:47.278Z,12.04
2023-04-18T20:34:24.119Z,12.06
2023-04-18T20:36:54.748Z,11.94
2023-04-18T20:39:25.435Z,11.86
2023-04-18T20:41:57.898Z,11.72
2023-04-18T20:44:28.275Z,11.69
2023-04-18T20:46:58.431Z,11.65
2023-04-18T20:49:31.217Z,11.64
2023-04-18T20:52:03.758Z,11.60
2023-04-18T20:54:34.449Z,11.57
2023-04-18T20:57:05.344Z,11.50
2023-04-18T20:59:35.602Z,11.40
2023-04-18T21:02:05.820Z,11.33
2023-04-18T21:04:38.872Z,11.28
2023-04-18T21:07:08.968Z,11.19
2023-04-18T21:09:39.409Z,11.14
2023-04-18T21:12:09.898Z,11.12
2023-04-18T21:14:40.613Z,11.13
2023-04-18T21:17:10.804Z,11.07
2023-04-18T21:19:43.781Z,11.11
2023-04-18T21:22:13.853Z,11.12
2023-04-18T21:24:44.035Z,11.14
2023-04-18T21:27:16.117Z,11.04
2023-04-18T21:29:46.399Z,10.99
2023-04-18T21:32:16.668Z,10.98
2023-04-18T21:34:49.708Z,10.99
2023-04-18T21:37:19.904Z,10.95
2023-04-18T21:39:50.110Z,10.91
2023-04-18T21:42:20.299Z,10.91
2023-04-18T21:44:50.336Z,10.92
2023-04-18T21:47:20.470Z,10.88
2023-04-18T21:49:53.183Z,10.87
2023-04-18T21:52:23.408Z,10.89
2023-04-18T21:54:53.583Z,10.85
2023-04-18T21:57:23.629Z,10.82
2023-04-18T21:59:53.813Z,10.80
2023-04-18T22:02:24.743Z,10.71
2023-04-18T22:04:57.545Z,10.68
2023-04-18T22:07:29.686Z,10.69
2023-04-18T22:10:00.472Z,10.52
2023-04-18T22:12:30.559Z,10.51
2023-04-18T22:15:07.196Z,10.47
2023-04-18T22:17:38.141Z,10.37
2023-04-18T22:20:13.172Z,10.26
2023-04-18T22:22:43.280Z,10.21
2023-04-18T22:25:14.252Z,10.23
2023-04-18T22:27:45.272Z,10.24
2023-04-18T22:30:17.134Z,10.22
2023-04-18T22:32:47.480Z,10.21
2023-04-18T22:35:20.527Z,10.23
2023-04-18T22:37:50.744Z,10.14
2023-04-18T22:40:20.904Z,10.07
2023-04-18T22:42:52.044Z,10.10
2023-04-18T22:45:22.571Z,9.99
2023-04-18T22:47:52.756Z,9.98
2023-04-18T22:50:26.026Z,9.97
2023-04-18T22:52:57.426Z,9.89
2023-04-18T22:55:27.763Z,9.89
2023-04-18T22:57:57.951Z,9.92
2023-04-18T23:00:28.278Z,10.02
2023-04-18T23:02:58.680Z,9.99
2023-04-18T23:05:31.930Z,10.03
2023-04-18T23:08:02.131Z,10.10
2023-04-18T23:10:32.559Z,10.17
2023-04-18T23:13:02.786Z,10.25
2023-04-18T23:15:32.959Z,10.26
2023-04-18T23:18:03.247Z,10.27
2023-04-18T23:20:38.097Z,10.28
2023-04-18T23:23:08.509Z,10.31
2023-04-18T23:25:39.428Z,10.33
2023-04-18T23:28:10.875Z,10.39
2023-04-18T23:30:41.701Z,10.49
2023-04-18T23:33:12.287Z,10.51
2023-04-18T23:35:45.060Z,10.55
2023-04-18T23:38:15.693Z,10.57
2023-04-18T23:40:45.977Z,10.59
2023-04-18T23:43:16.217Z,10.58
2023-04-18T23:45:46.406Z,10.60
2023-04-18T23:48:16.594Z,10.64
2023-04-18T23:50:52.580Z,10.63
2023-04-18T23:53:24.949Z,10.64
2023-04-18T23:55:57.101Z,10.65
2023-04-18T23:58:27.155Z,10.63
